»·PEaware :: N172SP KSMO-KSMO

N172SP :: KSMO-KSMO

FLIGHT INFORMATION

Flight Status: Arrived
Operator: Privately registered:
United States
More flights under this callsign
Pilot: Philip K. (17459)
Aircraft: CESSNA 172 SKYHAWK
(C172)
More flights by this aircraft type
Origin: KSMO Santa Monica Mun
United States
Destination: KSMO Santa Monica Mun
United States
More flights between these airports :: More routes between these airports
Route: +
File this flight plan on PilotEdge
Remarks:
Altitude:
(Current/Filed)
0ft
Speed:
(Current/Filed)
0kts
Departed: 07-Dec-17 08:57 AM
Arrived: 07-Dec-17 09:28 AM
Distance/Time
Traveled:
0nm/0:31
Distance/Time
To Go:
Arrived

Flight Plot

Page will automatically refresh every two minutes.


Map Options




Map Legend


Flown Route
Filed Route
Departure Airport
Arrival Airport
Navaid (VOR, NDB)
Fix

Horizontal Profiles

Position Reports

Time Latitude Longitude Heading Altitude Ground
Speed
07-Dec-17 08:55 34.020373 -118.448454 43 159ft 0kts
07-Dec-17 08:56 34.020373 -118.448454 43 159ft 0kts
07-Dec-17 08:57 34.020803 -118.447415 134 161ft 6kts
07-Dec-17 08:58 34.020295 -118.447187 223 161ft 1kts
07-Dec-17 08:59 34.019132 -118.448574 217 156ft 4kts
07-Dec-17 09:00 34.018933 -118.448586 133 156ft 0kts
07-Dec-17 09:01 34.018919 -118.448570 133 156ft 1kts
07-Dec-17 09:02 34.015929 -118.451365 226 140ft 75kts
07-Dec-17 09:03 33.999890 -118.457390 135 997ft 82kts
07-Dec-17 09:04 33.997405 -118.445360 42 1250ft 62kts
07-Dec-17 09:05 34.011618 -118.431153 39 1384ft 71kts
07-Dec-17 09:06 34.025293 -118.421317 310 1202ft 86kts
07-Dec-17 09:07 34.020810 -118.445444 227 210ft 100kts
07-Dec-17 09:08 34.006601 -118.460734 190 610ft 82kts
07-Dec-17 09:09 33.992329 -118.446785 127 1107ft 75kts
07-Dec-17 09:10 33.998812 -118.430066 38 1138ft 70kts
07-Dec-17 09:11 34.010946 -118.410858 51 1086ft 72kts
07-Dec-17 09:12 34.026317 -118.415178 307 1005ft 85kts
07-Dec-17 09:13 34.024810 -118.440411 227 432ft 96kts
07-Dec-17 09:14 34.007018 -118.461301 225 513ft 91kts
07-Dec-17 09:15 33.989910 -118.453366 129 1023ft 81kts
07-Dec-17 09:16 33.997356 -118.436237 38 1039ft 72kts
07-Dec-17 09:17 34.012005 -118.419517 46 1045ft 72kts
07-Dec-17 09:18 34.026963 -118.422973 321 730ft 82kts
07-Dec-17 09:19 34.019347 -118.447138 226 173ft 90kts
07-Dec-17 09:20 34.001805 -118.459853 128 898ft 73kts
07-Dec-17 09:21 33.987070 -118.441076 126 1130ft 80kts
07-Dec-17 09:22 34.000895 -118.424561 41 1122ft 71kts
07-Dec-17 09:23 34.015841 -118.408609 43 1095ft 71kts
07-Dec-17 09:24 34.030289 -118.420748 316 712ft 74kts
07-Dec-17 09:25 34.022336 -118.443634 225 267ft 81kts
07-Dec-17 09:26 34.005513 -118.460048 162 679ft 82kts
07-Dec-17 09:28 33.991124 -118.442647 126 1134ft 84kts
07-Dec-17 09:29 33.993411 -118.424825 39 1079ft 72kts
07-Dec-17 09:30 34.008364 -118.408830 53 1047ft 71kts
07-Dec-17 09:31 34.021214 -118.408678 300 829ft 76kts
07-Dec-17 09:32 34.030174 -118.430713 293 529ft 76kts
07-Dec-17 09:33 34.016672 -118.450302 223 145ft 50kts
07-Dec-17 09:34 34.012222 -118.455589 232 114ft 20kts
07-Dec-17 09:35 34.012467 -118.456407 355 114ft 5kts
07-Dec-17 09:36 34.013627 -118.455081 45 123ft 15kts
07-Dec-17 09:37 34.016567 -118.451609 43 142ft 12kts
07-Dec-17 09:38 34.017358 -118.450673 44 147ft 6kts
07-Dec-17 09:39 34.018669 -118.449126 43 154ft 7kts
07-Dec-17 09:40 34.020092 -118.447433 44 160ft 5kts
07-Dec-17 09:41 34.020670 -118.447961 316 160ft 1kts
07-Dec-17 09:41 34.020789 -118.447969 43 161ft 0kts
07-Dec-17 09:43 34.020789 -118.447969 43 161ft 0kts
07-Dec-17 09:44 34.020789 -118.447969 43 161ft 0kts
07-Dec-17 09:45 34.020789 -118.447969 43 161ft 0kts
07-Dec-17 09:46 34.020789 -118.447969 43 161ft 0kts
07-Dec-17 09:47 34.020789 -118.447969 43 161ft 0kts
07-Dec-17 09:48 34.020789 -118.447969 43 161ft 0kts
07-Dec-17 09:48 34.020789 -118.447969 43 161ft 0kts

Navigation Log

Ident Type
1. KSMO Airport
2. KSMO Airport